createdAt,value
2022-12-20T00:01:38.152Z,5.81
2022-12-20T00:04:06.442Z,5.91
2022-12-20T00:06:34.971Z,6.04
2022-12-20T00:09:03.333Z,6.16
2022-12-20T00:11:30.947Z,6.02
2022-12-20T00:13:58.815Z,5.92
2022-12-20T00:16:27.661Z,6.00
2022-12-20T00:18:59.433Z,6.12
2022-12-20T00:21:27.399Z,6.31
2022-12-20T00:23:55.211Z,6.47
2022-12-20T00:26:24.609Z,6.38
2022-12-20T00:28:53.868Z,6.13
2022-12-20T00:31:22.130Z,6.18
2022-12-20T00:33:51.392Z,6.26
2022-12-20T00:36:19.763Z,6.33
2022-12-20T00:38:47.940Z,6.29
2022-12-20T00:41:16.783Z,6.34
2022-12-20T00:43:44.965Z,6.34
2022-12-20T00:46:13.910Z,6.29
2022-12-20T00:48:43.525Z,6.24
2022-12-20T00:51:12.947Z,6.13
2022-12-20T00:53:40.879Z,6.05
2022-12-20T00:56:08.491Z,6.19
2022-12-20T00:58:36.948Z,6.18
2022-12-20T01:01:06.319Z,6.28
2022-12-20T01:03:34.672Z,6.39
2022-12-20T01:06:02.865Z,6.48
2022-12-20T01:08:31.616Z,6.31
2022-12-20T01:11:00.474Z,6.31
2022-12-20T01:13:28.413Z,6.40
2022-12-20T01:15:55.949Z,6.38
2022-12-20T01:18:23.436Z,6.36
2022-12-20T01:21:00.296Z,6.43
2022-12-20T01:23:27.723Z,6.41
2022-12-20T01:25:57.353Z,6.26
2022-12-20T01:28:24.916Z,6.36
2022-12-20T01:30:52.776Z,6.35
2022-12-20T01:33:21.700Z,6.47
2022-12-20T01:35:56.254Z,6.40
2022-12-20T01:38:24.060Z,6.06
2022-12-20T01:40:52.181Z,5.99
2022-12-20T01:43:19.898Z,5.95
2022-12-20T01:45:48.504Z,6.12
2022-12-20T01:48:23.085Z,6.18
2022-12-20T01:50:51.899Z,6.27
2022-12-20T01:53:22.153Z,6.24
2022-12-20T01:55:49.735Z,6.27
2022-12-20T01:58:18.896Z,6.27
2022-12-20T02:00:47.009Z,6.25
2022-12-20T02:03:16.042Z,6.18
2022-12-20T02:05:47.896Z,6.29
2022-12-20T02:08:17.108Z,6.29
2022-12-20T02:10:50.480Z,6.26
2022-12-20T02:13:25.348Z,6.29
2022-12-20T02:15:57.487Z,6.34
2022-12-20T02:18:43.628Z,6.31
2022-12-20T02:21:23.465Z,6.40
2022-12-20T02:23:57.081Z,6.39
2022-12-20T02:26:37.721Z,6.47
2022-12-20T02:29:11.942Z,6.43
2022-12-20T02:31:42.512Z,6.49
2022-12-20T02:34:10.962Z,6.54
2022-12-20T02:36:38.202Z,6.43
2022-12-20T02:39:06.015Z,6.45
2022-12-20T02:41:38.175Z,6.50
2022-12-20T02:44:28.467Z,6.24
2022-12-20T02:46:56.528Z,6.44
2022-12-20T02:49:27.056Z,6.29
2022-12-20T02:51:57.959Z,6.31
2022-12-20T02:54:25.799Z,6.26
2022-12-20T02:57:00.887Z,6.41
2022-12-20T02:59:31.010Z,6.40
2022-12-20T03:01:59.201Z,6.39
2022-12-20T03:04:28.852Z,6.21
2022-12-20T03:07:07.043Z,6.36
2022-12-20T03:09:36.706Z,6.37
2022-12-20T03:12:04.257Z,6.41
2022-12-20T03:14:34.366Z,6.39
2022-12-20T03:17:04.639Z,6.39
2022-12-20T03:19:32.486Z,6.24
2022-12-20T03:21:59.955Z,6.35
2022-12-20T03:24:27.317Z,6.13
2022-12-20T03:26:55.264Z,6.27
2022-12-20T03:29:24.974Z,6.36
2022-12-20T03:31:52.647Z,6.36
2022-12-20T03:34:19.962Z,6.24
2022-12-20T03:36:47.949Z,6.30
2022-12-20T03:39:16.229Z,6.14
2022-12-20T03:41:44.080Z,6.20
2022-12-20T03:44:14.055Z,6.19
2022-12-20T03:46:41.665Z,6.16
2022-12-20T03:49:09.427Z,6.33
2022-12-20T03:51:43.788Z,6.25
2022-12-20T03:54:11.872Z,6.30
2022-12-20T03:57:05.847Z,6.31
2022-12-20T03:59:33.730Z,6.20
2022-12-20T04:02:02.075Z,6.22
2022-12-20T04:04:30.279Z,6.20
2022-12-20T04:06:58.436Z,6.32
2022-12-20T04:09:26.113Z,6.41
2022-12-20T04:11:59.031Z,6.31
2022-12-20T04:14:27.618Z,6.47
2022-12-20T04:16:55.561Z,6.36
2022-12-20T04:19:24.840Z,6.38
2022-12-20T04:21:52.907Z,6.39
2022-12-20T04:24:20.925Z,6.38
2022-12-20T04:27:13.057Z,6.31
2022-12-20T04:29:41.139Z,6.23
2022-12-20T04:32:12.118Z,6.12
2022-12-20T04:34:39.939Z,6.08
2022-12-20T04:37:07.542Z,6.24
2022-12-20T04:39:44.822Z,6.27
2022-12-20T04:42:20.233Z,6.27
2022-12-20T04:44:48.087Z,6.32
2022-12-20T04:47:20.668Z,6.34
2022-12-20T04:49:48.123Z,6.42
2022-12-20T04:52:33.940Z,6.31
2022-12-20T04:55:01.880Z,6.32
2022-12-20T04:57:32.372Z,6.41
2022-12-20T05:00:00.736Z,6.35
2022-12-20T05:02:28.289Z,6.10
2022-12-20T05:05:01.821Z,6.20
2022-12-20T05:07:32.539Z,6.36
2022-12-20T05:10:00.404Z,6.30
2022-12-20T05:12:27.731Z,6.30
2022-12-20T05:14:58.005Z,6.21
2022-12-20T05:17:26.117Z,6.26
2022-12-20T05:19:54.196Z,6.19
2022-12-20T05:22:40.608Z,6.27
2022-12-20T05:25:30.292Z,6.36
2022-12-20T05:28:01.251Z,6.28
2022-12-20T05:30:33.722Z,6.31
2022-12-20T05:33:01.060Z,6.41
2022-12-20T05:35:29.118Z,6.32
2022-12-20T05:38:03.963Z,6.43
2022-12-20T05:40:32.317Z,6.49
2022-12-20T05:43:00.846Z,6.39
2022-12-20T05:45:40.186Z,6.31
2022-12-20T05:48:14.955Z,6.42
2022-12-20T05:50:46.784Z,6.28
2022-12-20T05:53:34.379Z,6.34
2022-12-20T05:56:04.829Z,6.29
2022-12-20T05:58:36.124Z,6.27
2022-12-20T06:01:06.897Z,6.28
2022-12-20T06:03:40.409Z,6.34
2022-12-20T06:06:14.824Z,6.39
2022-12-20T06:08:45.868Z,6.24
2022-12-20T06:11:29.439Z,6.18
2022-12-20T06:14:07.708Z,6.21
2022-12-20T06:16:37.308Z,6.31
2022-12-20T06:19:06.579Z,6.18
2022-12-20T06:21:34.277Z,6.17
2022-12-20T06:24:01.971Z,6.37
2022-12-20T06:26:36.143Z,6.34
2022-12-20T06:29:10.432Z,6.40
2022-12-20T06:31:42.967Z,6.52
2022-12-20T06:34:10.405Z,6.58
2022-12-20T06:36:41.240Z,6.25
2022-12-20T06:39:14.337Z,6.18
2022-12-20T06:41:50.315Z,6.03
2022-12-20T06:44:18.908Z,6.05
2022-12-20T06:46:46.324Z,5.84
2022-12-20T06:49:14.993Z,5.87
2022-12-20T06:51:42.931Z,5.96
2022-12-20T06:54:11.738Z,6.04
2022-12-20T06:56:41.681Z,6.04
2022-12-20T06:59:11.892Z,6.07
2022-12-20T07:01:39.689Z,5.77
2022-12-20T07:04:07.076Z,5.94
2022-12-20T07:06:34.792Z,5.86
2022-12-20T07:09:02.361Z,5.69
2022-12-20T07:11:30.232Z,5.92
2022-12-20T07:13:58.034Z,6.07
2022-12-20T07:16:25.735Z,6.08
2022-12-20T07:18:53.902Z,6.27
2022-12-20T07:21:21.852Z,6.04
2022-12-20T07:23:49.432Z,6.09
2022-12-20T07:26:17.222Z,6.28
2022-12-20T07:28:44.928Z,6.22
2022-12-20T07:31:12.233Z,5.99
2022-12-20T07:33:39.805Z,5.93
2022-12-20T07:36:10.765Z,5.89
2022-12-20T07:38:38.591Z,5.94
2022-12-20T07:41:10.240Z,5.96
2022-12-20T07:43:37.638Z,6.28
2022-12-20T07:46:06.605Z,6.17
2022-12-20T07:48:34.620Z,6.29
2022-12-20T07:51:06.717Z,6.34
2022-12-20T07:53:37.047Z,6.54
2022-12-20T07:56:05.181Z,6.62
2022-12-20T07:58:34.221Z,6.65
2022-12-20T08:01:02.347Z,6.69
2022-12-20T08:03:33.383Z,6.78
2022-12-20T08:06:04.027Z,6.74
2022-12-20T08:08:36.080Z,6.70
2022-12-20T08:11:04.588Z,6.18
2022-12-20T08:13:33.029Z,6.06
2022-12-20T08:16:01.296Z,6.18
2022-12-20T08:18:29.183Z,6.09
2022-12-20T08:20:56.512Z,6.26
2022-12-20T08:23:23.943Z,6.45
2022-12-20T08:25:51.358Z,6.13
2022-12-20T08:28:18.788Z,6.11
2022-12-20T08:30:46.816Z,6.40
2022-12-20T08:33:14.158Z,6.20
2022-12-20T08:35:41.460Z,6.36
2022-12-20T08:38:08.827Z,6.58
2022-12-20T08:40:36.607Z,6.43
2022-12-20T08:43:10.311Z,6.30
2022-12-20T08:45:38.390Z,6.40
2022-12-20T08:48:05.888Z,6.45
2022-12-20T08:50:33.262Z,6.69
2022-12-20T08:53:01.001Z,6.82
2022-12-20T08:55:29.248Z,6.68
2022-12-20T08:57:57.097Z,6.68
2022-12-20T09:00:24.625Z,6.66
2022-12-20T09:02:55.082Z,6.80
2022-12-20T09:05:22.539Z,7.03
2022-12-20T09:07:50.780Z,7.14
2022-12-20T09:10:18.556Z,7.28
2022-12-20T09:12:45.841Z,7.19
2022-12-20T09:15:14.368Z,7.05
2022-12-20T09:17:42.070Z,7.02
2022-12-20T09:20:09.699Z,6.84
2022-12-20T09:22:37.116Z,7.01
2022-12-20T09:25:04.888Z,7.23
2022-12-20T09:27:32.641Z,7.37
2022-12-20T09:30:00.857Z,7.25
2022-12-20T09:32:28.162Z,7.38
2022-12-20T09:34:56.150Z,7.53
2022-12-20T09:37:23.452Z,7.55
2022-12-20T09:39:51.611Z,7.74
2022-12-20T09:42:22.332Z,7.63
2022-12-20T09:44:50.098Z,7.72
2022-12-20T09:47:20.751Z,7.81
2022-12-20T09:49:49.644Z,7.95
2022-12-20T09:52:29.054Z,7.83
2022-12-20T09:55:17.554Z,8.04
2022-12-20T09:57:54.849Z,7.99
2022-12-20T10:00:22.195Z,7.97
2022-12-20T10:03:10.036Z,8.16
2022-12-20T10:05:47.000Z,8.20
2022-12-20T10:08:17.483Z,8.01
2022-12-20T10:10:52.940Z,7.90
2022-12-20T10:13:29.733Z,7.91
2022-12-20T10:16:06.198Z,8.06
2022-12-20T10:18:52.002Z,8.25
2022-12-20T10:21:26.447Z,8.23
2022-12-20T10:23:59.828Z,8.09
2022-12-20T10:26:27.502Z,7.88
2022-12-20T10:28:55.100Z,7.63
2022-12-20T10:31:22.569Z,7.77
2022-12-20T10:33:50.062Z,8.05
2022-12-20T10:36:43.576Z,8.11
2022-12-20T10:39:11.067Z,8.58
2022-12-20T10:41:41.095Z,8.15
2022-12-20T10:44:14.992Z,8.11
2022-12-20T10:46:45.661Z,8.16
2022-12-20T10:49:28.738Z,8.16
2022-12-20T10:52:01.527Z,8.14
2022-12-20T10:54:30.541Z,8.02
2022-12-20T10:56:59.815Z,8.31
2022-12-20T10:59:31.799Z,8.31
2022-12-20T11:01:59.287Z,8.53
2022-12-20T11:04:31.668Z,8.25
2022-12-20T11:07:00.153Z,8.28
2022-12-20T11:09:29.309Z,8.41
2022-12-20T11:12:04.670Z,8.46
2022-12-20T11:14:38.638Z,8.56
2022-12-20T11:17:16.419Z,8.71
2022-12-20T11:19:43.662Z,8.95
2022-12-20T11:22:23.974Z,9.07
2022-12-20T11:24:57.899Z,9.32
2022-12-20T11:27:25.147Z,9.25
2022-12-20T11:29:56.224Z,8.99
2022-12-20T11:32:24.027Z,8.69
2022-12-20T11:35:01.401Z,8.41
2022-12-20T11:37:33.547Z,8.35
2022-12-20T11:40:16.234Z,8.18
2022-12-20T11:42:53.675Z,8.16
2022-12-20T11:45:25.891Z,8.35
2022-12-20T11:48:11.739Z,8.40
2022-12-20T11:50:45.158Z,8.42
2022-12-20T11:53:31.968Z,8.40
2022-12-20T11:56:02.729Z,8.19
2022-12-20T11:58:36.718Z,8.11
2022-12-20T12:01:07.745Z,7.65
2022-12-20T12:03:36.414Z,8.12
2022-12-20T12:06:07.026Z,8.35
2022-12-20T12:08:39.248Z,8.44
2022-12-20T12:11:31.859Z,8.54
2022-12-20T12:14:01.942Z,8.44
2022-12-20T12:16:35.845Z,8.41
2022-12-20T12:19:04.835Z,8.71
2022-12-20T12:21:35.058Z,8.55
2022-12-20T12:24:13.237Z,8.57
2022-12-20T12:26:41.175Z,8.42
2022-12-20T12:29:19.500Z,8.52
2022-12-20T12:31:51.728Z,8.31
2022-12-20T12:34:37.945Z,8.42
2022-12-20T12:37:23.866Z,8.30
2022-12-20T12:40:05.309Z,8.55
2022-12-20T12:42:51.137Z,8.62
2022-12-20T12:45:18.539Z,8.21
2022-12-20T12:47:50.666Z,8.16
2022-12-20T12:50:24.364Z,8.02
2022-12-20T12:52:53.854Z,7.66
2022-12-20T12:56:12.668Z,7.68
2022-12-20T12:58:48.965Z,7.58
2022-12-20T13:01:36.746Z,7.83
2022-12-20T13:04:21.974Z,7.78
2022-12-20T13:06:49.324Z,7.79
2022-12-20T13:09:22.499Z,8.06
2022-12-20T13:11:59.411Z,7.97
2022-12-20T13:14:28.589Z,7.99
2022-12-20T13:17:12.106Z,8.25
2022-12-20T13:19:50.858Z,8.40
2022-12-20T13:22:18.247Z,8.25
2022-12-20T13:24:53.262Z,8.40
2022-12-20T13:27:35.228Z,8.02
2022-12-20T13:30:02.786Z,7.87
2022-12-20T13:32:49.488Z,8.19
2022-12-20T13:35:26.711Z,8.07
2022-12-20T13:37:54.979Z,8.09
2022-12-20T13:40:32.208Z,8.11
2022-12-20T13:43:03.990Z,7.99
2022-12-20T13:45:32.785Z,8.06
2022-12-20T13:48:10.824Z,7.96
2022-12-20T13:50:47.921Z,8.09
2022-12-20T13:53:20.040Z,8.12
2022-12-20T13:55:48.873Z,8.21
2022-12-20T13:58:18.644Z,8.36
2022-12-20T14:00:47.770Z,8.27
2022-12-20T14:03:26.941Z,8.33
2022-12-20T14:05:58.702Z,8.41
2022-12-20T14:08:28.313Z,8.33
2022-12-20T14:10:55.657Z,8.40
2022-12-20T14:13:25.422Z,8.51
2022-12-20T14:15:53.582Z,8.47
2022-12-20T14:18:25.300Z,8.53
2022-12-20T14:20:58.165Z,8.50
2022-12-20T14:23:29.467Z,8.29
2022-12-20T14:25:58.841Z,8.19
2022-12-20T14:28:27.686Z,8.06
2022-12-20T14:30:56.864Z,7.88
2022-12-20T14:33:30.332Z,7.88
2022-12-20T14:36:00.017Z,7.77
2022-12-20T14:38:30.943Z,7.88
2022-12-20T14:40:58.333Z,8.00
2022-12-20T14:43:33.115Z,8.07
2022-12-20T14:46:26.827Z,8.09
2022-12-20T14:49:13.947Z,8.10
2022-12-20T14:51:41.701Z,7.96
2022-12-20T14:54:32.678Z,8.05
2022-12-20T14:57:03.728Z,8.07
2022-12-20T14:59:31.802Z,7.96
2022-12-20T15:02:19.113Z,7.96
2022-12-20T15:04:46.544Z,7.79
2022-12-20T15:07:29.449Z,7.76
2022-12-20T15:09:57.241Z,7.83
2022-12-20T15:12:25.690Z,7.78
2022-12-20T15:14:53.539Z,7.76
2022-12-20T15:17:21.597Z,7.94
2022-12-20T15:19:48.934Z,8.06
2022-12-20T15:22:18.842Z,8.08
2022-12-20T15:24:46.876Z,8.02
2022-12-20T15:27:15.126Z,8.05
2022-12-20T15:29:43.523Z,8.07
2022-12-20T15:32:17.098Z,7.99
2022-12-20T15:34:44.913Z,8.03
2022-12-20T15:37:18.299Z,8.05
2022-12-20T15:39:46.826Z,8.04
2022-12-20T15:42:17.685Z,8.09
2022-12-20T15:44:45.226Z,8.02
2022-12-20T15:47:13.899Z,8.03
2022-12-20T15:49:47.875Z,8.09
2022-12-20T15:52:22.028Z,7.97
2022-12-20T15:54:49.780Z,8.03
2022-12-20T15:57:18.767Z,8.07
2022-12-20T16:00:03.413Z,8.04
2022-12-20T16:02:39.145Z,8.23
2022-12-20T16:05:09.144Z,8.07
2022-12-20T16:07:37.450Z,8.10
2022-12-20T16:10:05.536Z,7.98
2022-12-20T16:12:34.792Z,8.14
2022-12-20T16:15:02.314Z,8.26
2022-12-20T16:17:30.059Z,8.21
2022-12-20T16:19:57.367Z,8.25
2022-12-20T16:22:26.144Z,8.35
2022-12-20T16:24:53.683Z,8.24
2022-12-20T16:27:21.649Z,8.18
2022-12-20T16:29:49.041Z,8.30
2022-12-20T16:32:17.702Z,8.28
2022-12-20T16:34:45.685Z,8.14
2022-12-20T16:37:13.878Z,8.16
2022-12-20T16:39:41.943Z,8.19
2022-12-20T16:42:22.822Z,8.23
2022-12-20T16:44:54.528Z,8.26
2022-12-20T16:47:22.196Z,8.24
2022-12-20T16:49:52.830Z,8.31
2022-12-20T16:52:22.049Z,8.29
2022-12-20T16:54:50.744Z,8.38
2022-12-20T16:57:18.599Z,8.23
2022-12-20T16:59:46.555Z,8.23
2022-12-20T17:02:26.639Z,8.28
2022-12-20T17:04:54.632Z,8.21
2022-12-20T17:07:22.652Z,8.21
2022-12-20T17:09:50.102Z,8.16
2022-12-20T17:12:19.188Z,8.21
2022-12-20T17:14:47.430Z,8.26
2022-12-20T17:17:15.427Z,8.15
2022-12-20T17:19:43.126Z,8.23
2022-12-20T17:22:24.748Z,8.19
2022-12-20T17:24:52.773Z,8.03
2022-12-20T17:27:20.990Z,8.07
2022-12-20T17:29:50.824Z,8.10
2022-12-20T17:32:22.758Z,8.13
2022-12-20T17:34:50.901Z,8.03
2022-12-20T17:37:18.506Z,8.13
2022-12-20T17:39:46.798Z,8.08
2022-12-20T17:42:15.402Z,8.07
2022-12-20T17:44:42.837Z,8.05
2022-12-20T17:47:11.804Z,8.13
2022-12-20T17:49:39.334Z,8.10
2022-12-20T17:52:07.062Z,7.98
2022-12-20T17:54:39.955Z,8.17
2022-12-20T17:57:14.746Z,8.13
2022-12-20T17:59:42.549Z,8.12
2022-12-20T18:02:28.407Z,8.07
2022-12-20T18:04:56.747Z,8.05
2022-12-20T18:07:24.113Z,8.06
2022-12-20T18:09:52.097Z,8.06
2022-12-20T18:12:19.521Z,8.05
2022-12-20T18:14:48.424Z,8.06
2022-12-20T18:17:16.635Z,7.93
2022-12-20T18:19:44.112Z,7.94
2022-12-20T18:22:12.212Z,7.99
2022-12-20T18:24:39.686Z,8.08
2022-12-20T18:27:07.037Z,7.95
2022-12-20T18:29:34.690Z,7.93
2022-12-20T18:32:02.889Z,7.75
2022-12-20T18:34:30.378Z,7.96
2022-12-20T18:36:57.842Z,7.97
2022-12-20T18:39:25.155Z,7.88
2022-12-20T18:41:52.788Z,7.93
2022-12-20T18:44:20.131Z,7.97
2022-12-20T18:46:47.654Z,7.86
2022-12-20T18:49:15.437Z,7.86
2022-12-20T18:51:43.926Z,7.94
2022-12-20T18:54:12.846Z,7.92
2022-12-20T18:56:40.831Z,7.94
2022-12-20T18:59:12.059Z,7.93
2022-12-20T19:01:40.929Z,7.94
2022-12-20T19:04:08.758Z,7.91
2022-12-20T19:06:36.657Z,7.78
2022-12-20T19:09:05.488Z,7.71
2022-12-20T19:11:33.725Z,7.49
2022-12-20T19:14:01.544Z,7.69
2022-12-20T19:16:31.946Z,7.55
2022-12-20T19:19:00.843Z,7.59
2022-12-20T19:21:30.417Z,7.57
2022-12-20T19:23:58.918Z,7.57
2022-12-20T19:26:27.898Z,7.50
2022-12-20T19:28:55.803Z,7.62
2022-12-20T19:31:25.315Z,7.63
2022-12-20T19:33:54.753Z,7.49
2022-12-20T19:36:25.107Z,7.38
2022-12-20T19:38:55.995Z,7.59
2022-12-20T19:41:24.184Z,7.56
2022-12-20T19:43:51.760Z,7.68
2022-12-20T19:46:28.018Z,7.69
2022-12-20T19:48:56.809Z,7.60
2022-12-20T19:51:25.906Z,7.77
2022-12-20T19:53:54.640Z,7.61
2022-12-20T19:56:25.274Z,7.71
2022-12-20T19:58:52.759Z,7.66
2022-12-20T20:01:21.471Z,7.51
2022-12-20T20:03:49.419Z,7.65
2022-12-20T20:06:16.763Z,7.73
2022-12-20T20:08:45.706Z,7.66
2022-12-20T20:11:13.102Z,7.43
2022-12-20T20:13:40.477Z,7.41
2022-12-20T20:16:08.947Z,7.56
2022-12-20T20:18:37.523Z,7.57
2022-12-20T20:21:09.807Z,7.48
2022-12-20T20:23:37.562Z,7.35
2022-12-20T20:26:13.165Z,7.34
2022-12-20T20:28:45.006Z,7.54
2022-12-20T20:31:13.990Z,7.33
2022-12-20T20:33:49.304Z,7.54
2022-12-20T20:36:18.275Z,7.50
2022-12-20T20:38:46.792Z,7.25
2022-12-20T20:41:15.169Z,7.27
2022-12-20T20:43:43.112Z,7.42
2022-12-20T20:46:12.028Z,7.54
2022-12-20T20:48:40.194Z,7.47
2022-12-20T20:51:07.848Z,7.34
2022-12-20T20:53:35.461Z,7.47
2022-12-20T20:56:03.767Z,7.52
2022-12-20T20:58:31.231Z,7.38
2022-12-20T21:01:00.490Z,7.48
2022-12-20T21:03:28.731Z,7.39
2022-12-20T21:08:44.736Z,7.68
2022-12-20T21:11:12.331Z,7.60
2022-12-20T21:13:39.830Z,7.41
2022-12-20T21:16:09.386Z,7.32
2022-12-20T21:18:36.815Z,7.49
2022-12-20T21:21:11.367Z,7.54
2022-12-20T21:23:39.449Z,7.49
2022-12-20T21:26:07.900Z,7.68
2022-12-20T21:28:35.930Z,7.73
2022-12-20T21:31:05.600Z,7.60
2022-12-20T21:33:33.473Z,7.45
2022-12-20T21:36:00.938Z,7.55
2022-12-20T21:38:28.500Z,7.74
2022-12-20T21:40:59.357Z,7.71
2022-12-20T21:43:27.458Z,7.81
2022-12-20T21:45:54.827Z,7.71
2022-12-20T21:48:23.524Z,7.88
2022-12-20T21:51:00.042Z,7.72
2022-12-20T21:53:27.804Z,7.64
2022-12-20T21:55:56.585Z,7.69
2022-12-20T21:58:25.282Z,7.81
2022-12-20T22:00:55.070Z,7.88
2022-12-20T22:03:24.204Z,7.86
2022-12-20T22:05:53.264Z,7.73
2022-12-20T22:08:20.989Z,7.81
2022-12-20T22:10:50.024Z,7.92
2022-12-20T22:13:17.720Z,7.77
2022-12-20T22:15:45.505Z,7.81
2022-12-20T22:18:12.978Z,7.86
2022-12-20T22:20:43.943Z,7.94
2022-12-20T22:23:11.332Z,7.85
2022-12-20T22:25:38.748Z,7.72
2022-12-20T22:28:07.044Z,7.77
2022-12-20T22:30:34.599Z,7.79
2022-12-20T22:33:01.929Z,7.85
2022-12-20T22:35:29.362Z,7.76
2022-12-20T22:37:56.667Z,7.86
2022-12-20T22:40:24.042Z,7.89
2022-12-20T22:42:51.415Z,7.88
2022-12-20T22:45:18.744Z,7.85
2022-12-20T22:47:46.715Z,7.79
2022-12-20T22:50:14.153Z,7.79
2022-12-20T22:52:41.404Z,7.94
2022-12-20T22:55:09.426Z,7.85
2022-12-20T22:57:36.866Z,8.01
2022-12-20T23:00:05.475Z,8.04
2022-12-20T23:02:33.026Z,7.84
2022-12-20T23:05:00.529Z,7.97
2022-12-20T23:07:27.819Z,7.76
2022-12-20T23:09:55.535Z,7.71
2022-12-20T23:12:41.855Z,7.74
2022-12-20T23:15:30.764Z,7.70
2022-12-20T23:17:58.231Z,7.52
2022-12-20T23:20:44.211Z,7.51
2022-12-20T23:23:11.785Z,7.77
2022-12-20T23:25:40.175Z,7.91
2022-12-20T23:28:07.551Z,7.71
2022-12-20T23:30:34.835Z,7.74
2022-12-20T23:33:02.676Z,7.75
2022-12-20T23:35:29.992Z,7.79
2022-12-20T23:37:58.210Z,7.66
2022-12-20T23:40:25.486Z,7.75
2022-12-20T23:42:54.739Z,7.85
2022-12-20T23:45:22.019Z,7.89
2022-12-20T23:47:49.410Z,7.84
2022-12-20T23:50:17.217Z,7.79
2022-12-20T23:52:45.472Z,7.86
2022-12-20T23:55:13.553Z,7.86
2022-12-20T23:57:41.435Z,7.79
